sensor_id;sensor_type;location;lat;lon;timestamp;P1;durP1;ratioP1;P2;durP2;ratioP2
59424;SDS011;45231;44.826;20.312;2023-06-22T00:01:06;39.70;;;24.48;;
59424;SDS011;45231;44.826;20.312;2023-06-22T00:03:32;29.20;;;24.70;;
59424;SDS011;45231;44.826;20.312;2023-06-22T00:05:58;29.05;;;24.98;;
59424;SDS011;45231;44.826;20.312;2023-06-22T00:08:24;29.60;;;23.77;;
59424;SDS011;45231;44.826;20.312;2023-06-22T00:10:50;30.00;;;25.52;;
59424;SDS011;45231;44.826;20.312;2023-06-22T00:13:16;29.80;;;25.85;;
59424;SDS011;45231;44.826;20.312;2023-06-22T00:15:43;31.67;;;26.65;;
59424;SDS011;45231;44.826;20.312;2023-06-22T00:18:09;29.17;;;24.70;;
59424;SDS011;45231;44.826;20.312;2023-06-22T00:20:36;29.83;;;25.40;;
59424;SDS011;45231;44.826;20.312;2023-06-22T00:25:32;31.63;;;24.23;;
59424;SDS011;45231;44.826;20.312;2023-06-22T00:27:58;28.73;;;23.10;;
59424;SDS011;45231;44.826;20.312;2023-06-22T00:30:24;29.20;;;22.85;;
59424;SDS011;45231;44.826;20.312;2023-06-22T00:32:51;25.00;;;22.27;;
59424;SDS011;45231;44.826;20.312;2023-06-22T00:35:17;27.65;;;23.33;;
59424;SDS011;45231;44.826;20.312;2023-06-22T00:37:43;27.65;;;23.40;;
59424;SDS011;45231;44.826;20.312;2023-06-22T00:40:09;28.25;;;22.83;;
59424;SDS011;45231;44.826;20.312;2023-06-22T00:42:39;29.25;;;23.77;;
59424;SDS011;45231;44.826;20.312;2023-06-22T00:45:06;32.20;;;23.95;;
59424;SDS011;45231;44.826;20.312;2023-06-22T00:47:33;26.58;;;23.65;;
59424;SDS011;45231;44.826;20.312;2023-06-22T00:50:00;28.48;;;22.83;;
59424;SDS011;45231;44.826;20.312;2023-06-22T00:52:26;28.30;;;25.20;;
59424;SDS011;45231;44.826;20.312;2023-06-22T00:54:55;29.52;;;24.15;;
59424;SDS011;45231;44.826;20.312;2023-06-22T00:57:21;27.23;;;24.42;;
59424;SDS011;45231;44.826;20.312;2023-06-22T00:59:48;31.13;;;23.88;;
59424;SDS011;45231;44.826;20.312;2023-06-22T01:02:14;26.58;;;23.65;;
59424;SDS011;45231;44.826;20.312;2023-06-22T01:04:40;26.08;;;21.50;;
59424;SDS011;45231;44.826;20.312;2023-06-22T01:12:17;26.42;;;20.73;;
59424;SDS011;45231;44.826;20.312;2023-06-22T01:14:55;24.85;;;21.33;;
59424;SDS011;45231;44.826;20.312;2023-06-22T01:17:22;27.40;;;21.52;;
59424;SDS011;45231;44.826;20.312;2023-06-22T01:19:49;26.55;;;22.23;;
59424;SDS011;45231;44.826;20.312;2023-06-22T01:22:26;23.95;;;20.33;;
59424;SDS011;45231;44.826;20.312;2023-06-22T01:25:00;24.92;;;20.23;;
59424;SDS011;45231;44.826;20.312;2023-06-22T01:29:58;24.35;;;21.23;;
59424;SDS011;45231;44.826;20.312;2023-06-22T01:32:30;25.67;;;20.55;;
59424;SDS011;45231;44.826;20.312;2023-06-22T01:34:58;23.08;;;19.98;;
59424;SDS011;45231;44.826;20.312;2023-06-22T01:37:24;25.92;;;19.75;;
59424;SDS011;45231;44.826;20.312;2023-06-22T01:39:51;22.27;;;18.50;;
59424;SDS011;45231;44.826;20.312;2023-06-22T01:42:17;26.58;;;19.27;;
59424;SDS011;45231;44.826;20.312;2023-06-22T01:44:43;24.17;;;18.42;;
59424;SDS011;45231;44.826;20.312;2023-06-22T01:49:35;20.58;;;17.02;;
59424;SDS011;45231;44.826;20.312;2023-06-22T01:52:01;19.95;;;17.52;;
59424;SDS011;45231;44.826;20.312;2023-06-22T01:54:27;22.25;;;17.00;;
59424;SDS011;45231;44.826;20.312;2023-06-22T01:56:53;25.73;;;19.23;;
59424;SDS011;45231;44.826;20.312;2023-06-22T02:01:57;24.20;;;18.25;;
59424;SDS011;45231;44.826;20.312;2023-06-22T02:04:32;21.90;;;17.52;;
59424;SDS011;45231;44.826;20.312;2023-06-22T02:07:00;23.02;;;18.63;;
59424;SDS011;45231;44.826;20.312;2023-06-22T02:09:29;25.20;;;19.20;;
59424;SDS011;45231;44.826;20.312;2023-06-22T02:11:57;20.88;;;16.73;;
59424;SDS011;45231;44.826;20.312;2023-06-22T02:14:24;19.23;;;16.25;;
59424;SDS011;45231;44.826;20.312;2023-06-22T02:16:51;20.27;;;16.85;;
59424;SDS011;45231;44.826;20.312;2023-06-22T02:19:17;22.25;;;17.52;;
59424;SDS011;45231;44.826;20.312;2023-06-22T02:21:48;19.98;;;17.45;;
59424;SDS011;45231;44.826;20.312;2023-06-22T02:24:14;23.00;;;16.83;;
59424;SDS011;45231;44.826;20.312;2023-06-22T02:26:40;19.48;;;16.13;;
59424;SDS011;45231;44.826;20.312;2023-06-22T02:29:07;25.10;;;18.67;;
59424;SDS011;45231;44.826;20.312;2023-06-22T02:31:33;21.73;;;18.30;;
59424;SDS011;45231;44.826;20.312;2023-06-22T02:33:59;23.08;;;17.48;;
59424;SDS011;45231;44.826;20.312;2023-06-22T02:36:25;24.63;;;18.30;;
59424;SDS011;45231;44.826;20.312;2023-06-22T02:41:18;23.10;;;18.45;;
59424;SDS011;45231;44.826;20.312;2023-06-22T02:46:10;22.83;;;19.55;;
59424;SDS011;45231;44.826;20.312;2023-06-22T02:48:38;23.33;;;18.85;;
59424;SDS011;45231;44.826;20.312;2023-06-22T02:51:04;22.38;;;19.98;;
59424;SDS011;45231;44.826;20.312;2023-06-22T02:53:30;23.67;;;19.00;;
59424;SDS011;45231;44.826;20.312;2023-06-22T02:55:56;25.02;;;21.48;;
59424;SDS011;45231;44.826;20.312;2023-06-22T02:58:22;27.58;;;22.17;;
59424;SDS011;45231;44.826;20.312;2023-06-22T03:00:49;26.45;;;22.63;;
59424;SDS011;45231;44.826;20.312;2023-06-22T03:03:18;26.38;;;21.40;;
59424;SDS011;45231;44.826;20.312;2023-06-22T03:05:44;26.33;;;20.10;;
59424;SDS011;45231;44.826;20.312;2023-06-22T03:08:10;33.25;;;23.10;;
59424;SDS011;45231;44.826;20.312;2023-06-22T03:10:36;31.70;;;25.48;;
59424;SDS011;45231;44.826;20.312;2023-06-22T03:13:02;28.25;;;24.90;;
59424;SDS011;45231;44.826;20.312;2023-06-22T03:15:28;26.88;;;23.70;;
59424;SDS011;45231;44.826;20.312;2023-06-22T03:17:56;30.25;;;24.52;;
59424;SDS011;45231;44.826;20.312;2023-06-22T03:20:22;33.47;;;26.65;;
59424;SDS011;45231;44.826;20.312;2023-06-22T03:22:48;30.52;;;25.33;;
59424;SDS011;45231;44.826;20.312;2023-06-22T03:25:14;27.95;;;24.95;;
59424;SDS011;45231;44.826;20.312;2023-06-22T03:27:41;30.65;;;24.65;;
59424;SDS011;45231;44.826;20.312;2023-06-22T03:30:09;29.55;;;23.75;;
59424;SDS011;45231;44.826;20.312;2023-06-22T03:32:37;30.00;;;23.35;;
59424;SDS011;45231;44.826;20.312;2023-06-22T03:35:03;30.38;;;23.38;;
59424;SDS011;45231;44.826;20.312;2023-06-22T03:37:31;32.47;;;22.02;;
59424;SDS011;45231;44.826;20.312;2023-06-22T03:42:23;30.52;;;20.63;;
59424;SDS011;45231;44.826;20.312;2023-06-22T03:44:49;25.83;;;20.73;;
59424;SDS011;45231;44.826;20.312;2023-06-22T03:47:15;26.17;;;20.60;;
59424;SDS011;45231;44.826;20.312;2023-06-22T03:49:41;24.35;;;18.70;;
59424;SDS011;45231;44.826;20.312;2023-06-22T03:52:07;19.85;;;17.30;;
59424;SDS011;45231;44.826;20.312;2023-06-22T03:54:34;27.90;;;15.82;;
59424;SDS011;45231;44.826;20.312;2023-06-22T03:57:00;23.60;;;15.30;;
59424;SDS011;45231;44.826;20.312;2023-06-22T03:59:26;19.35;;;15.45;;
59424;SDS011;45231;44.826;20.312;2023-06-22T04:01:52;20.90;;;14.07;;
59424;SDS011;45231;44.826;20.312;2023-06-22T04:04:18;15.60;;;12.93;;
59424;SDS011;45231;44.826;20.312;2023-06-22T04:06:44;19.02;;;13.50;;
59424;SDS011;45231;44.826;20.312;2023-06-22T04:09:10;17.17;;;12.68;;
59424;SDS011;45231;44.826;20.312;2023-06-22T04:14:03;18.35;;;13.55;;
59424;SDS011;45231;44.826;20.312;2023-06-22T04:16:29;15.70;;;12.55;;
59424;SDS011;45231;44.826;20.312;2023-06-22T04:18:55;17.60;;;13.60;;
59424;SDS011;45231;44.826;20.312;2023-06-22T04:21:21;16.13;;;12.88;;
59424;SDS011;45231;44.826;20.312;2023-06-22T04:23:47;21.20;;;12.82;;
59424;SDS011;45231;44.826;20.312;2023-06-22T04:26:13;19.77;;;13.70;;
59424;SDS011;45231;44.826;20.312;2023-06-22T04:31:05;19.23;;;14.40;;
59424;SDS011;45231;44.826;20.312;2023-06-22T04:33:31;20.13;;;14.48;;
59424;SDS011;45231;44.826;20.312;2023-06-22T04:35:58;21.73;;;14.35;;
59424;SDS011;45231;44.826;20.312;2023-06-22T04:38:28;22.13;;;14.85;;
59424;SDS011;45231;44.826;20.312;2023-06-22T04:40:58;18.13;;;14.40;;
59424;SDS011;45231;44.826;20.312;2023-06-22T04:43:26;22.05;;;14.88;;
59424;SDS011;45231;44.826;20.312;2023-06-22T04:45:55;21.23;;;14.60;;
59424;SDS011;45231;44.826;20.312;2023-06-22T04:50:47;20.63;;;13.55;;
59424;SDS011;45231;44.826;20.312;2023-06-22T04:53:13;19.02;;;13.65;;
59424;SDS011;45231;44.826;20.312;2023-06-22T04:55:39;16.90;;;13.80;;
59424;SDS011;45231;44.826;20.312;2023-06-22T04:58:10;18.02;;;12.73;;
59424;SDS011;45231;44.826;20.312;2023-06-22T05:00:37;22.67;;;13.35;;
59424;SDS011;45231;44.826;20.312;2023-06-22T05:03:04;21.02;;;13.02;;
59424;SDS011;45231;44.826;20.312;2023-06-22T05:05:31;14.98;;;12.43;;
59424;SDS011;45231;44.826;20.312;2023-06-22T05:07:57;15.65;;;11.73;;
59424;SDS011;45231;44.826;20.312;2023-06-22T05:10:25;15.05;;;11.30;;
59424;SDS011;45231;44.826;20.312;2023-06-22T05:12:52;18.17;;;11.48;;
59424;SDS011;45231;44.826;20.312;2023-06-22T05:17:44;13.37;;;10.87;;
59424;SDS011;45231;44.826;20.312;2023-06-22T05:22:36;14.02;;;10.68;;
59424;SDS011;45231;44.826;20.312;2023-06-22T05:25:03;16.00;;;10.70;;
59424;SDS011;45231;44.826;20.312;2023-06-22T05:27:29;12.00;;;10.30;;
59424;SDS011;45231;44.826;20.312;2023-06-22T05:29:55;15.82;;;9.98;;
59424;SDS011;45231;44.826;20.312;2023-06-22T05:32:21;12.65;;;10.77;;
59424;SDS011;45231;44.826;20.312;2023-06-22T05:34:47;14.77;;;10.20;;
59424;SDS011;45231;44.826;20.312;2023-06-22T05:37:13;14.25;;;9.95;;
59424;SDS011;45231;44.826;20.312;2023-06-22T05:42:05;11.95;;;9.43;;
59424;SDS011;45231;44.826;20.312;2023-06-22T05:44:31;11.70;;;9.95;;
59424;SDS011;45231;44.826;20.312;2023-06-22T05:46:58;24.75;;;10.43;;
59424;SDS011;45231;44.826;20.312;2023-06-22T05:49:24;13.15;;;9.82;;
59424;SDS011;45231;44.826;20.312;2023-06-22T05:51:55;22.30;;;10.88;;
59424;SDS011;45231;44.826;20.312;2023-06-22T05:54:21;13.98;;;9.55;;
59424;SDS011;45231;44.826;20.312;2023-06-22T05:56:48;13.77;;;9.77;;
59424;SDS011;45231;44.826;20.312;2023-06-22T05:59:14;12.98;;;10.27;;
59424;SDS011;45231;44.826;20.312;2023-06-22T06:01:40;14.02;;;9.40;;
59424;SDS011;45231;44.826;20.312;2023-06-22T06:04:06;14.63;;;9.32;;
59424;SDS011;45231;44.826;20.312;2023-06-22T06:06:33;18.58;;;10.02;;
59424;SDS011;45231;44.826;20.312;2023-06-22T06:09:02;12.40;;;9.73;;
59424;SDS011;45231;44.826;20.312;2023-06-22T06:11:28;13.05;;;9.80;;
59424;SDS011;45231;44.826;20.312;2023-06-22T06:13:54;13.48;;;10.07;;
59424;SDS011;45231;44.826;20.312;2023-06-22T06:16:20;12.93;;;9.68;;
59424;SDS011;45231;44.826;20.312;2023-06-22T06:18:46;13.82;;;8.55;;
59424;SDS011;45231;44.826;20.312;2023-06-22T06:21:14;12.73;;;8.95;;
59424;SDS011;45231;44.826;20.312;2023-06-22T06:23:40;15.10;;;9.95;;
59424;SDS011;45231;44.826;20.312;2023-06-22T06:26:07;16.27;;;8.63;;
59424;SDS011;45231;44.826;20.312;2023-06-22T06:28:33;17.52;;;8.90;;
59424;SDS011;45231;44.826;20.312;2023-06-22T06:30:59;20.30;;;9.38;;
59424;SDS011;45231;44.826;20.312;2023-06-22T06:33:25;15.00;;;9.18;;
59424;SDS011;45231;44.826;20.312;2023-06-22T06:35:51;13.27;;;7.60;;
59424;SDS011;45231;44.826;20.312;2023-06-22T06:38:17;9.88;;;7.57;;
59424;SDS011;45231;44.826;20.312;2023-06-22T06:40:44;14.48;;;7.55;;
59424;SDS011;45231;44.826;20.312;2023-06-22T06:43:10;13.82;;;8.07;;
59424;SDS011;45231;44.826;20.312;2023-06-22T06:45:36;16.50;;;8.40;;
59424;SDS011;45231;44.826;20.312;2023-06-22T06:48:02;9.85;;;7.30;;
59424;SDS011;45231;44.826;20.312;2023-06-22T06:50:28;25.52;;;8.38;;
59424;SDS011;45231;44.826;20.312;2023-06-22T06:52:54;33.05;;;8.93;;
59424;SDS011;45231;44.826;20.312;2023-06-22T06:55:21;11.38;;;7.45;;
59424;SDS011;45231;44.826;20.312;2023-06-22T06:57:50;11.77;;;7.95;;
59424;SDS011;45231;44.826;20.312;2023-06-22T07:00:17;14.43;;;7.10;;
59424;SDS011;45231;44.826;20.312;2023-06-22T07:02:44;11.75;;;7.40;;
59424;SDS011;45231;44.826;20.312;2023-06-22T07:05:11;13.98;;;7.68;;
59424;SDS011;45231;44.826;20.312;2023-06-22T07:07:37;12.63;;;7.30;;
59424;SDS011;45231;44.826;20.312;2023-06-22T07:10:04;20.10;;;8.05;;
59424;SDS011;45231;44.826;20.312;2023-06-22T07:12:30;13.88;;;7.47;;
59424;SDS011;45231;44.826;20.312;2023-06-22T07:15:03;14.27;;;7.05;;
59424;SDS011;45231;44.826;20.312;2023-06-22T07:17:30;15.48;;;6.82;;
59424;SDS011;45231;44.826;20.312;2023-06-22T07:19:56;14.10;;;7.00;;
59424;SDS011;45231;44.826;20.312;2023-06-22T07:22:22;12.52;;;7.03;;
59424;SDS011;45231;44.826;20.312;2023-06-22T07:24:48;11.55;;;6.47;;
59424;SDS011;45231;44.826;20.312;2023-06-22T07:27:14;10.07;;;6.22;;
59424;SDS011;45231;44.826;20.312;2023-06-22T07:29:44;11.32;;;6.25;;
59424;SDS011;45231;44.826;20.312;2023-06-22T07:32:10;13.07;;;6.97;;
59424;SDS011;45231;44.826;20.312;2023-06-22T07:34:36;12.35;;;6.50;;
59424;SDS011;45231;44.826;20.312;2023-06-22T07:37:02;20.40;;;7.53;;
59424;SDS011;45231;44.826;20.312;2023-06-22T07:39:29;12.15;;;7.25;;
59424;SDS011;45231;44.826;20.312;2023-06-22T07:41:55;10.27;;;7.32;;
59424;SDS011;45231;44.826;20.312;2023-06-22T07:44:22;13.95;;;7.45;;
59424;SDS011;45231;44.826;20.312;2023-06-22T07:46:49;19.00;;;7.45;;
59424;SDS011;45231;44.826;20.312;2023-06-22T07:49:15;17.05;;;7.78;;
59424;SDS011;45231;44.826;20.312;2023-06-22T07:51:41;18.85;;;7.47;;
59424;SDS011;45231;44.826;20.312;2023-06-22T07:54:08;14.40;;;7.65;;
59424;SDS011;45231;44.826;20.312;2023-06-22T07:56:35;15.63;;;7.05;;
59424;SDS011;45231;44.826;20.312;2023-06-22T07:59:01;20.67;;;7.22;;
59424;SDS011;45231;44.826;20.312;2023-06-22T08:01:28;15.13;;;7.13;;
59424;SDS011;45231;44.826;20.312;2023-06-22T08:03:55;13.15;;;7.38;;
59424;SDS011;45231;44.826;20.312;2023-06-22T08:06:21;11.70;;;6.82;;
59424;SDS011;45231;44.826;20.312;2023-06-22T08:08:47;24.42;;;8.20;;
59424;SDS011;45231;44.826;20.312;2023-06-22T08:11:14;15.10;;;7.47;;
59424;SDS011;45231;44.826;20.312;2023-06-22T08:13:40;10.35;;;7.05;;
59424;SDS011;45231;44.826;20.312;2023-06-22T08:16:06;9.45;;;7.07;;
59424;SDS011;45231;44.826;20.312;2023-06-22T08:18:32;14.35;;;7.43;;
59424;SDS011;45231;44.826;20.312;2023-06-22T08:20:58;11.45;;;7.70;;
59424;SDS011;45231;44.826;20.312;2023-06-22T08:23:24;15.80;;;8.07;;
59424;SDS011;45231;44.826;20.312;2023-06-22T08:25:50;9.95;;;7.75;;
59424;SDS011;45231;44.826;20.312;2023-06-22T08:28:16;10.25;;;7.00;;
59424;SDS011;45231;44.826;20.312;2023-06-22T08:30:43;10.82;;;7.57;;
59424;SDS011;45231;44.826;20.312;2023-06-22T08:33:09;12.68;;;8.07;;
59424;SDS011;45231;44.826;20.312;2023-06-22T08:35:35;11.98;;;7.57;;
59424;SDS011;45231;44.826;20.312;2023-06-22T08:38:01;13.77;;;7.65;;
59424;SDS011;45231;44.826;20.312;2023-06-22T08:40:27;8.73;;;7.38;;
59424;SDS011;45231;44.826;20.312;2023-06-22T08:42:54;14.05;;;7.90;;
59424;SDS011;45231;44.826;20.312;2023-06-22T08:45:20;10.73;;;6.70;;
59424;SDS011;45231;44.826;20.312;2023-06-22T08:47:46;21.52;;;7.70;;
59424;SDS011;45231;44.826;20.312;2023-06-22T08:50:13;10.60;;;7.80;;
59424;SDS011;45231;44.826;20.312;2023-06-22T08:52:39;9.82;;;7.05;;
59424;SDS011;45231;44.826;20.312;2023-06-22T08:55:09;11.38;;;7.93;;
59424;SDS011;45231;44.826;20.312;2023-06-22T08:57:35;12.02;;;7.68;;
59424;SDS011;45231;44.826;20.312;2023-06-22T09:00:07;14.63;;;7.80;;
59424;SDS011;45231;44.826;20.312;2023-06-22T09:02:53;18.63;;;7.75;;
59424;SDS011;45231;44.826;20.312;2023-06-22T09:05:23;12.73;;;7.40;;
59424;SDS011;45231;44.826;20.312;2023-06-22T09:07:51;19.20;;;9.10;;
59424;SDS011;45231;44.826;20.312;2023-06-22T09:10:17;17.35;;;7.85;;
59424;SDS011;45231;44.826;20.312;2023-06-22T09:12:43;13.13;;;7.45;;
59424;SDS011;45231;44.826;20.312;2023-06-22T09:15:09;11.75;;;7.47;;
59424;SDS011;45231;44.826;20.312;2023-06-22T09:17:36;10.75;;;6.93;;
59424;SDS011;45231;44.826;20.312;2023-06-22T09:20:02;9.73;;;6.80;;
59424;SDS011;45231;44.826;20.312;2023-06-22T09:22:31;14.07;;;6.80;;
59424;SDS011;45231;44.826;20.312;2023-06-22T09:24:57;8.95;;;6.55;;
59424;SDS011;45231;44.826;20.312;2023-06-22T09:27:24;14.52;;;7.78;;
59424;SDS011;45231;44.826;20.312;2023-06-22T09:29:50;15.13;;;7.03;;
59424;SDS011;45231;44.826;20.312;2023-06-22T09:32:16;11.40;;;7.20;;
59424;SDS011;45231;44.826;20.312;2023-06-22T09:34:42;15.75;;;6.95;;
59424;SDS011;45231;44.826;20.312;2023-06-22T09:37:09;11.80;;;6.22;;
59424;SDS011;45231;44.826;20.312;2023-06-22T09:39:35;10.73;;;6.57;;
59424;SDS011;45231;44.826;20.312;2023-06-22T09:42:01;10.95;;;7.30;;
59424;SDS011;45231;44.826;20.312;2023-06-22T09:44:28;10.45;;;7.13;;
59424;SDS011;45231;44.826;20.312;2023-06-22T09:46:54;16.35;;;6.75;;
59424;SDS011;45231;44.826;20.312;2023-06-22T09:49:20;17.77;;;6.68;;
59424;SDS011;45231;44.826;20.312;2023-06-22T09:51:46;9.68;;;6.18;;
59424;SDS011;45231;44.826;20.312;2023-06-22T09:54:12;13.82;;;6.32;;
59424;SDS011;45231;44.826;20.312;2023-06-22T09:56:38;10.32;;;6.13;;
59424;SDS011;45231;44.826;20.312;2023-06-22T09:59:04;9.50;;;6.22;;
59424;SDS011;45231;44.826;20.312;2023-06-22T10:01:30;10.95;;;6.57;;
59424;SDS011;45231;44.826;20.312;2023-06-22T10:03:56;11.45;;;6.88;;
59424;SDS011;45231;44.826;20.312;2023-06-22T10:06:22;9.27;;;5.70;;
59424;SDS011;45231;44.826;20.312;2023-06-22T10:08:50;11.10;;;5.53;;
59424;SDS011;45231;44.826;20.312;2023-06-22T10:11:16;9.88;;;6.00;;
59424;SDS011;45231;44.826;20.312;2023-06-22T10:13:42;8.88;;;5.68;;
59424;SDS011;45231;44.826;20.312;2023-06-22T10:16:08;8.43;;;6.03;;
59424;SDS011;45231;44.826;20.312;2023-06-22T10:18:35;10.70;;;6.05;;
59424;SDS011;45231;44.826;20.312;2023-06-22T10:21:01;10.48;;;6.47;;
59424;SDS011;45231;44.826;20.312;2023-06-22T10:23:27;10.50;;;6.32;;
59424;SDS011;45231;44.826;20.312;2023-06-22T10:25:53;12.52;;;6.45;;
59424;SDS011;45231;44.826;20.312;2023-06-22T10:28:19;10.05;;;6.20;;
59424;SDS011;45231;44.826;20.312;2023-06-22T10:30:45;10.93;;;6.32;;
59424;SDS011;45231;44.826;20.312;2023-06-22T10:33:11;16.17;;;7.13;;
59424;SDS011;45231;44.826;20.312;2023-06-22T10:35:38;8.50;;;6.05;;
59424;SDS011;45231;44.826;20.312;2023-06-22T10:38:04;12.52;;;6.57;;
59424;SDS011;45231;44.826;20.312;2023-06-22T10:40:30;13.68;;;6.65;;
59424;SDS011;45231;44.826;20.312;2023-06-22T10:42:56;9.90;;;6.30;;
59424;SDS011;45231;44.826;20.312;2023-06-22T10:45:22;11.45;;;6.20;;
59424;SDS011;45231;44.826;20.312;2023-06-22T10:47:49;9.90;;;6.60;;
59424;SDS011;45231;44.826;20.312;2023-06-22T10:50:15;11.32;;;6.72;;
59424;SDS011;45231;44.826;20.312;2023-06-22T10:52:41;9.90;;;5.90;;
59424;SDS011;45231;44.826;20.312;2023-06-22T10:55:07;7.85;;;6.10;;
59424;SDS011;45231;44.826;20.312;2023-06-22T10:57:33;8.68;;;6.07;;
59424;SDS011;45231;44.826;20.312;2023-06-22T11:00:00;11.13;;;6.50;;
59424;SDS011;45231;44.826;20.312;2023-06-22T11:02:26;9.00;;;6.95;;
59424;SDS011;45231;44.826;20.312;2023-06-22T11:04:53;11.05;;;6.53;;
59424;SDS011;45231;44.826;20.312;2023-06-22T11:07:19;10.18;;;6.80;;
59424;SDS011;45231;44.826;20.312;2023-06-22T11:09:45;11.10;;;6.97;;
59424;SDS011;45231;44.826;20.312;2023-06-22T11:12:11;12.30;;;6.88;;
59424;SDS011;45231;44.826;20.312;2023-06-22T11:14:38;10.98;;;6.43;;
59424;SDS011;45231;44.826;20.312;2023-06-22T11:17:04;9.60;;;6.50;;
59424;SDS011;45231;44.826;20.312;2023-06-22T11:19:31;8.40;;;6.47;;
59424;SDS011;45231;44.826;20.312;2023-06-22T11:21:57;11.25;;;6.40;;
59424;SDS011;45231;44.826;20.312;2023-06-22T11:24:23;8.98;;;6.82;;
59424;SDS011;45231;44.826;20.312;2023-06-22T11:26:49;10.88;;;6.13;;
59424;SDS011;45231;44.826;20.312;2023-06-22T11:29:15;9.43;;;6.63;;
59424;SDS011;45231;44.826;20.312;2023-06-22T11:31:41;9.85;;;6.35;;
59424;SDS011;45231;44.826;20.312;2023-06-22T11:34:08;9.40;;;6.63;;
59424;SDS011;45231;44.826;20.312;2023-06-22T11:36:34;17.15;;;6.30;;
59424;SDS011;45231;44.826;20.312;2023-06-22T11:39:00;8.82;;;6.28;;
59424;SDS011;45231;44.826;20.312;2023-06-22T11:41:27;9.00;;;6.32;;
59424;SDS011;45231;44.826;20.312;2023-06-22T11:43:53;25.05;;;7.65;;
59424;SDS011;45231;44.826;20.312;2023-06-22T11:46:19;11.70;;;6.40;;
59424;SDS011;45231;44.826;20.312;2023-06-22T11:48:45;11.15;;;6.47;;
59424;SDS011;45231;44.826;20.312;2023-06-22T11:51:11;8.32;;;6.40;;
59424;SDS011;45231;44.826;20.312;2023-06-22T11:53:37;10.68;;;6.45;;
59424;SDS011;45231;44.826;20.312;2023-06-22T11:56:03;12.13;;;7.15;;
59424;SDS011;45231;44.826;20.312;2023-06-22T11:58:29;9.45;;;6.78;;
59424;SDS011;45231;44.826;20.312;2023-06-22T12:00:55;15.70;;;6.70;;
59424;SDS011;45231;44.826;20.312;2023-06-22T12:03:21;8.88;;;6.03;;
59424;SDS011;45231;44.826;20.312;2023-06-22T12:05:47;10.15;;;6.32;;
59424;SDS011;45231;44.826;20.312;2023-06-22T12:08:14;11.70;;;6.63;;
59424;SDS011;45231;44.826;20.312;2023-06-22T12:10:40;31.05;;;7.18;;
59424;SDS011;45231;44.826;20.312;2023-06-22T12:13:06;23.35;;;6.35;;
59424;SDS011;45231;44.826;20.312;2023-06-22T12:15:32;10.27;;;6.07;;
59424;SDS011;45231;44.826;20.312;2023-06-22T12:17:58;11.10;;;6.82;;
59424;SDS011;45231;44.826;20.312;2023-06-22T12:20:26;15.50;;;6.40;;
59424;SDS011;45231;44.826;20.312;2023-06-22T12:22:52;10.95;;;6.30;;
59424;SDS011;45231;44.826;20.312;2023-06-22T12:25:20;11.50;;;6.22;;
59424;SDS011;45231;44.826;20.312;2023-06-22T12:27:46;12.45;;;6.50;;
59424;SDS011;45231;44.826;20.312;2023-06-22T12:30:12;8.63;;;5.55;;
59424;SDS011;45231;44.826;20.312;2023-06-22T12:32:38;11.45;;;6.28;;
59424;SDS011;45231;44.826;20.312;2023-06-22T12:35:04;13.20;;;6.75;;
59424;SDS011;45231;44.826;20.312;2023-06-22T12:37:32;10.38;;;6.55;;
59424;SDS011;45231;44.826;20.312;2023-06-22T12:39:59;10.90;;;5.88;;
59424;SDS011;45231;44.826;20.312;2023-06-22T12:42:25;10.40;;;6.57;;
59424;SDS011;45231;44.826;20.312;2023-06-22T12:44:53;11.48;;;6.60;;
59424;SDS011;45231;44.826;20.312;2023-06-22T12:47:19;11.07;;;6.55;;
59424;SDS011;45231;44.826;20.312;2023-06-22T12:49:45;10.82;;;6.43;;
59424;SDS011;45231;44.826;20.312;2023-06-22T12:52:11;11.18;;;6.22;;
59424;SDS011;45231;44.826;20.312;2023-06-22T12:54:37;11.05;;;6.60;;
59424;SDS011;45231;44.826;20.312;2023-06-22T12:57:03;11.68;;;6.32;;
59424;SDS011;45231;44.826;20.312;2023-06-22T12:59:29;9.90;;;6.80;;
59424;SDS011;45231;44.826;20.312;2023-06-22T13:01:55;10.45;;;6.38;;
59424;SDS011;45231;44.826;20.312;2023-06-22T13:04:21;9.45;;;6.57;;
59424;SDS011;45231;44.826;20.312;2023-06-22T13:06:47;8.93;;;6.53;;
59424;SDS011;45231;44.826;20.312;2023-06-22T13:09:14;9.63;;;6.32;;
59424;SDS011;45231;44.826;20.312;2023-06-22T13:11:40;14.77;;;7.05;;
59424;SDS011;45231;44.826;20.312;2023-06-22T13:14:06;10.52;;;6.07;;
59424;SDS011;45231;44.826;20.312;2023-06-22T13:16:32;11.82;;;6.35;;
59424;SDS011;45231;44.826;20.312;2023-06-22T13:18:58;8.77;;;6.30;;
59424;SDS011;45231;44.826;20.312;2023-06-22T13:21:24;9.82;;;6.40;;
59424;SDS011;45231;44.826;20.312;2023-06-22T13:23:50;8.75;;;6.38;;
59424;SDS011;45231;44.826;20.312;2023-06-22T13:26:17;8.52;;;6.47;;
59424;SDS011;45231;44.826;20.312;2023-06-22T13:28:43;14.60;;;6.90;;
59424;SDS011;45231;44.826;20.312;2023-06-22T13:31:09;11.57;;;6.30;;
59424;SDS011;45231;44.826;20.312;2023-06-22T13:33:35;8.73;;;6.35;;
59424;SDS011;45231;44.826;20.312;2023-06-22T13:36:01;10.40;;;5.97;;
59424;SDS011;45231;44.826;20.312;2023-06-22T13:38:28;13.50;;;7.00;;
59424;SDS011;45231;44.826;20.312;2023-06-22T13:40:55;8.77;;;6.57;;
59424;SDS011;45231;44.826;20.312;2023-06-22T13:43:23;9.73;;;6.60;;
59424;SDS011;45231;44.826;20.312;2023-06-22T13:45:50;11.23;;;6.53;;
59424;SDS011;45231;44.826;20.312;2023-06-22T13:48:16;9.73;;;6.70;;
59424;SDS011;45231;44.826;20.312;2023-06-22T13:50:42;9.95;;;6.70;;
59424;SDS011;45231;44.826;20.312;2023-06-22T13:53:09;10.00;;;6.57;;
59424;SDS011;45231;44.826;20.312;2023-06-22T13:55:37;8.93;;;6.63;;
59424;SDS011;45231;44.826;20.312;2023-06-22T13:58:08;8.93;;;6.32;;
59424;SDS011;45231;44.826;20.312;2023-06-22T14:00:34;9.25;;;5.95;;
59424;SDS011;45231;44.826;20.312;2023-06-22T14:03:00;11.70;;;6.65;;
59424;SDS011;45231;44.826;20.312;2023-06-22T14:05:26;11.85;;;6.55;;
59424;SDS011;45231;44.826;20.312;2023-06-22T14:07:52;10.13;;;6.75;;
59424;SDS011;45231;44.826;20.312;2023-06-22T14:10:18;9.63;;;6.88;;
59424;SDS011;45231;44.826;20.312;2023-06-22T14:12:44;12.18;;;6.75;;
59424;SDS011;45231;44.826;20.312;2023-06-22T14:15:10;9.80;;;6.65;;
59424;SDS011;45231;44.826;20.312;2023-06-22T14:17:36;11.07;;;7.10;;
59424;SDS011;45231;44.826;20.312;2023-06-22T14:20:02;9.40;;;6.93;;
59424;SDS011;45231;44.826;20.312;2023-06-22T14:22:30;11.32;;;6.80;;
59424;SDS011;45231;44.826;20.312;2023-06-22T14:24:56;12.48;;;6.60;;
59424;SDS011;45231;44.826;20.312;2023-06-22T14:27:23;11.30;;;6.90;;
59424;SDS011;45231;44.826;20.312;2023-06-22T14:29:49;9.90;;;6.85;;
59424;SDS011;45231;44.826;20.312;2023-06-22T14:32:15;9.98;;;7.18;;
59424;SDS011;45231;44.826;20.312;2023-06-22T14:34:41;11.07;;;6.78;;
59424;SDS011;45231;44.826;20.312;2023-06-22T14:37:09;9.18;;;6.80;;
59424;SDS011;45231;44.826;20.312;2023-06-22T14:39:37;15.80;;;6.28;;
59424;SDS011;45231;44.826;20.312;2023-06-22T14:42:04;19.27;;;7.53;;
59424;SDS011;45231;44.826;20.312;2023-06-22T14:44:30;12.10;;;6.80;;
59424;SDS011;45231;44.826;20.312;2023-06-22T14:46:57;14.20;;;7.15;;
59424;SDS011;45231;44.826;20.312;2023-06-22T14:49:23;11.45;;;6.60;;
59424;SDS011;45231;44.826;20.312;2023-06-22T14:51:49;14.27;;;7.25;;